sensor_id;sensor_type;location;lat;lon;timestamp;P1;durP1;ratioP1;P2;durP2;ratioP2
11827;SDS011;5971;49.646;8.568;2023-05-10T00:01:41;2.53;;;1.42;;
11827;SDS011;5971;49.646;8.568;2023-05-10T00:04:42;3.38;;;1.40;;
11827;SDS011;5971;49.646;8.568;2023-05-10T00:07:43;2.60;;;1.33;;
11827;SDS011;5971;49.646;8.568;2023-05-10T00:10:48;2.40;;;1.17;;
11827;SDS011;5971;49.646;8.568;2023-05-10T00:13:49;3.17;;;1.60;;
11827;SDS011;5971;49.646;8.568;2023-05-10T00:16:50;5.53;;;1.52;;
11827;SDS011;5971;49.646;8.568;2023-05-10T00:19:52;2.40;;;1.42;;
11827;SDS011;5971;49.646;8.568;2023-05-10T00:22:53;2.60;;;1.45;;
11827;SDS011;5971;49.646;8.568;2023-05-10T00:25:54;3.40;;;1.30;;
11827;SDS011;5971;49.646;8.568;2023-05-10T00:28:56;2.90;;;1.52;;
11827;SDS011;5971;49.646;8.568;2023-05-10T00:31:58;2.70;;;1.63;;
11827;SDS011;5971;49.646;8.568;2023-05-10T00:34:59;4.03;;;1.50;;
11827;SDS011;5971;49.646;8.568;2023-05-10T00:38:00;2.55;;;1.48;;
11827;SDS011;5971;49.646;8.568;2023-05-10T00:41:02;8.23;;;2.50;;
11827;SDS011;5971;49.646;8.568;2023-05-10T00:44:03;3.17;;;1.48;;
11827;SDS011;5971;49.646;8.568;2023-05-10T00:47:05;3.10;;;1.60;;
11827;SDS011;5971;49.646;8.568;2023-05-10T00:50:06;3.22;;;1.52;;
11827;SDS011;5971;49.646;8.568;2023-05-10T00:53:08;2.83;;;1.50;;
11827;SDS011;5971;49.646;8.568;2023-05-10T00:56:09;2.90;;;1.65;;
11827;SDS011;5971;49.646;8.568;2023-05-10T00:59:11;2.65;;;1.55;;
11827;SDS011;5971;49.646;8.568;2023-05-10T01:02:12;4.28;;;1.52;;
11827;SDS011;5971;49.646;8.568;2023-05-10T01:05:14;2.60;;;1.38;;
11827;SDS011;5971;49.646;8.568;2023-05-10T01:08:15;2.88;;;1.67;;
11827;SDS011;5971;49.646;8.568;2023-05-10T01:11:17;3.13;;;1.60;;
11827;SDS011;5971;49.646;8.568;2023-05-10T01:14:18;3.80;;;1.52;;
11827;SDS011;5971;49.646;8.568;2023-05-10T01:17:20;4.03;;;1.63;;
11827;SDS011;5971;49.646;8.568;2023-05-10T01:20:23;2.42;;;1.58;;
11827;SDS011;5971;49.646;8.568;2023-05-10T01:23:35;5.18;;;1.85;;
11827;SDS011;5971;49.646;8.568;2023-05-10T01:30:01;3.20;;;1.60;;
11827;SDS011;5971;49.646;8.568;2023-05-10T01:36:26;2.95;;;1.77;;
11827;SDS011;5971;49.646;8.568;2023-05-10T01:39:44;3.00;;;1.75;;
11827;SDS011;5971;49.646;8.568;2023-05-10T01:42:47;3.22;;;2.03;;
11827;SDS011;5971;49.646;8.568;2023-05-10T01:45:57;3.55;;;2.05;;
11827;SDS011;5971;49.646;8.568;2023-05-10T01:49:00;4.28;;;2.13;;
11827;SDS011;5971;49.646;8.568;2023-05-10T01:52:06;3.65;;;1.95;;
11827;SDS011;5971;49.646;8.568;2023-05-10T01:55:11;3.08;;;1.88;;
11827;SDS011;5971;49.646;8.568;2023-05-10T01:58:15;3.88;;;1.80;;
11827;SDS011;5971;49.646;8.568;2023-05-10T02:01:18;3.88;;;2.17;;
11827;SDS011;5971;49.646;8.568;2023-05-10T02:04:21;4.20;;;2.17;;
11827;SDS011;5971;49.646;8.568;2023-05-10T02:07:23;3.90;;;2.28;;
11827;SDS011;5971;49.646;8.568;2023-05-10T02:10:24;5.18;;;2.00;;
11827;SDS011;5971;49.646;8.568;2023-05-10T02:13:27;3.40;;;1.92;;
11827;SDS011;5971;49.646;8.568;2023-05-10T02:16:28;3.72;;;2.22;;
11827;SDS011;5971;49.646;8.568;2023-05-10T02:19:32;3.90;;;2.22;;
11827;SDS011;5971;49.646;8.568;2023-05-10T02:22:33;4.50;;;2.42;;
11827;SDS011;5971;49.646;8.568;2023-05-10T02:25:36;4.00;;;3.00;;
11827;SDS011;5971;49.646;8.568;2023-05-10T02:28:40;5.43;;;2.13;;
11827;SDS011;5971;49.646;8.568;2023-05-10T02:31:41;3.80;;;1.88;;
11827;SDS011;5971;49.646;8.568;2023-05-10T02:34:44;3.30;;;1.95;;
11827;SDS011;5971;49.646;8.568;2023-05-10T02:37:47;3.63;;;2.15;;
11827;SDS011;5971;49.646;8.568;2023-05-10T02:40:48;3.75;;;2.35;;
11827;SDS011;5971;49.646;8.568;2023-05-10T02:43:50;4.43;;;2.03;;
11827;SDS011;5971;49.646;8.568;2023-05-10T02:46:52;3.83;;;2.25;;
11827;SDS011;5971;49.646;8.568;2023-05-10T02:49:56;4.85;;;2.33;;
11827;SDS011;5971;49.646;8.568;2023-05-10T02:53:01;7.50;;;2.30;;
11827;SDS011;5971;49.646;8.568;2023-05-10T02:56:05;3.63;;;2.17;;
11827;SDS011;5971;49.646;8.568;2023-05-10T02:59:10;5.00;;;1.83;;
11827;SDS011;5971;49.646;8.568;2023-05-10T03:02:12;4.38;;;2.40;;
11827;SDS011;5971;49.646;8.568;2023-05-10T03:05:13;4.63;;;2.42;;
11827;SDS011;5971;49.646;8.568;2023-05-10T03:08:15;6.28;;;2.63;;
11827;SDS011;5971;49.646;8.568;2023-05-10T03:11:32;4.93;;;2.78;;
11827;SDS011;5971;49.646;8.568;2023-05-10T03:15:00;4.22;;;2.75;;
11827;SDS011;5971;49.646;8.568;2023-05-10T03:21:04;4.35;;;2.17;;
11827;SDS011;5971;49.646;8.568;2023-05-10T03:24:08;4.32;;;2.30;;
11827;SDS011;5971;49.646;8.568;2023-05-10T03:27:13;6.15;;;2.50;;
11827;SDS011;5971;49.646;8.568;2023-05-10T03:30:15;4.07;;;2.33;;
11827;SDS011;5971;49.646;8.568;2023-05-10T03:33:17;4.88;;;2.20;;
11827;SDS011;5971;49.646;8.568;2023-05-10T03:36:19;6.35;;;2.50;;
11827;SDS011;5971;49.646;8.568;2023-05-10T03:39:20;5.63;;;2.53;;
11827;SDS011;5971;49.646;8.568;2023-05-10T03:42:22;4.40;;;2.53;;
11827;SDS011;5971;49.646;8.568;2023-05-10T03:45:23;6.55;;;2.30;;
11827;SDS011;5971;49.646;8.568;2023-05-10T03:48:25;5.28;;;2.63;;
11827;SDS011;5971;49.646;8.568;2023-05-10T03:51:26;4.03;;;2.42;;
11827;SDS011;5971;49.646;8.568;2023-05-10T03:54:29;5.60;;;2.53;;
11827;SDS011;5971;49.646;8.568;2023-05-10T03:57:30;6.47;;;3.30;;
11827;SDS011;5971;49.646;8.568;2023-05-10T04:00:31;4.30;;;2.42;;
11827;SDS011;5971;49.646;8.568;2023-05-10T04:03:33;4.32;;;2.22;;
11827;SDS011;5971;49.646;8.568;2023-05-10T04:06:37;4.70;;;2.33;;
11827;SDS011;5971;49.646;8.568;2023-05-10T04:09:39;4.20;;;2.35;;
11827;SDS011;5971;49.646;8.568;2023-05-10T04:12:40;5.63;;;2.70;;
11827;SDS011;5971;49.646;8.568;2023-05-10T04:15:42;5.22;;;2.58;;
11827;SDS011;5971;49.646;8.568;2023-05-10T04:18:44;5.20;;;2.60;;
11827;SDS011;5971;49.646;8.568;2023-05-10T04:21:45;4.57;;;3.15;;
11827;SDS011;5971;49.646;8.568;2023-05-10T04:24:46;4.72;;;2.42;;
11827;SDS011;5971;49.646;8.568;2023-05-10T04:27:48;4.28;;;2.35;;
11827;SDS011;5971;49.646;8.568;2023-05-10T04:30:49;5.88;;;3.00;;
11827;SDS011;5971;49.646;8.568;2023-05-10T04:33:50;5.07;;;2.88;;
11827;SDS011;5971;49.646;8.568;2023-05-10T04:36:52;4.70;;;2.70;;
11827;SDS011;5971;49.646;8.568;2023-05-10T04:39:53;7.57;;;2.75;;
11827;SDS011;5971;49.646;8.568;2023-05-10T04:42:54;5.65;;;3.00;;
11827;SDS011;5971;49.646;8.568;2023-05-10T04:45:56;6.25;;;3.08;;
11827;SDS011;5971;49.646;8.568;2023-05-10T04:48:57;5.95;;;2.70;;
11827;SDS011;5971;49.646;8.568;2023-05-10T04:51:58;5.80;;;2.92;;
11827;SDS011;5971;49.646;8.568;2023-05-10T04:55:00;5.70;;;2.80;;
11827;SDS011;5971;49.646;8.568;2023-05-10T04:58:01;5.30;;;2.75;;
11827;SDS011;5971;49.646;8.568;2023-05-10T05:01:07;4.82;;;2.83;;
11827;SDS011;5971;49.646;8.568;2023-05-10T05:04:10;5.15;;;3.00;;
11827;SDS011;5971;49.646;8.568;2023-05-10T05:07:12;6.57;;;3.10;;
11827;SDS011;5971;49.646;8.568;2023-05-10T05:10:13;4.97;;;2.80;;
11827;SDS011;5971;49.646;8.568;2023-05-10T05:13:14;6.72;;;3.30;;
11827;SDS011;5971;49.646;8.568;2023-05-10T05:16:16;5.03;;;2.67;;
11827;SDS011;5971;49.646;8.568;2023-05-10T05:19:17;4.55;;;2.60;;
11827;SDS011;5971;49.646;8.568;2023-05-10T05:22:19;5.38;;;2.83;;
11827;SDS011;5971;49.646;8.568;2023-05-10T05:25:20;4.93;;;2.83;;
11827;SDS011;5971;49.646;8.568;2023-05-10T05:28:22;4.13;;;2.35;;
11827;SDS011;5971;49.646;8.568;2023-05-10T05:31:23;4.57;;;2.80;;
11827;SDS011;5971;49.646;8.568;2023-05-10T05:34:24;6.50;;;2.53;;
11827;SDS011;5971;49.646;8.568;2023-05-10T05:37:27;5.97;;;2.75;;
11827;SDS011;5971;49.646;8.568;2023-05-10T05:40:28;4.75;;;2.97;;
11827;SDS011;5971;49.646;8.568;2023-05-10T05:43:29;5.05;;;3.03;;
11827;SDS011;5971;49.646;8.568;2023-05-10T05:46:30;4.75;;;2.90;;
11827;SDS011;5971;49.646;8.568;2023-05-10T05:49:32;5.80;;;3.15;;
11827;SDS011;5971;49.646;8.568;2023-05-10T05:52:33;5.40;;;2.78;;
11827;SDS011;5971;49.646;8.568;2023-05-10T05:55:35;5.28;;;2.65;;
11827;SDS011;5971;49.646;8.568;2023-05-10T05:58:36;4.68;;;2.78;;
11827;SDS011;5971;49.646;8.568;2023-05-10T06:01:38;5.15;;;3.00;;
11827;SDS011;5971;49.646;8.568;2023-05-10T06:04:39;5.78;;;2.80;;
11827;SDS011;5971;49.646;8.568;2023-05-10T06:07:44;4.13;;;2.35;;
11827;SDS011;5971;49.646;8.568;2023-05-10T06:10:46;3.90;;;2.40;;
11827;SDS011;5971;49.646;8.568;2023-05-10T06:13:47;6.13;;;2.55;;
11827;SDS011;5971;49.646;8.568;2023-05-10T06:16:48;4.47;;;2.63;;
11827;SDS011;5971;49.646;8.568;2023-05-10T06:19:50;4.43;;;2.42;;
11827;SDS011;5971;49.646;8.568;2023-05-10T06:22:51;5.85;;;2.80;;
11827;SDS011;5971;49.646;8.568;2023-05-10T06:25:52;4.82;;;2.80;;
11827;SDS011;5971;49.646;8.568;2023-05-10T06:28:54;6.32;;;3.33;;
11827;SDS011;5971;49.646;8.568;2023-05-10T06:31:55;6.32;;;2.78;;
11827;SDS011;5971;49.646;8.568;2023-05-10T06:34:57;4.03;;;2.03;;
11827;SDS011;5971;49.646;8.568;2023-05-10T06:37:58;5.18;;;2.85;;
11827;SDS011;5971;49.646;8.568;2023-05-10T06:40:59;4.53;;;2.70;;
11827;SDS011;5971;49.646;8.568;2023-05-10T06:44:00;4.32;;;2.50;;
11827;SDS011;5971;49.646;8.568;2023-05-10T06:47:02;4.68;;;2.67;;
11827;SDS011;5971;49.646;8.568;2023-05-10T06:50:03;5.57;;;2.45;;
11827;SDS011;5971;49.646;8.568;2023-05-10T06:53:05;4.07;;;2.53;;
11827;SDS011;5971;49.646;8.568;2023-05-10T06:56:06;4.90;;;2.60;;
11827;SDS011;5971;49.646;8.568;2023-05-10T06:59:07;4.75;;;2.80;;
11827;SDS011;5971;49.646;8.568;2023-05-10T07:02:09;5.47;;;2.67;;
11827;SDS011;5971;49.646;8.568;2023-05-10T07:05:10;4.85;;;2.55;;
11827;SDS011;5971;49.646;8.568;2023-05-10T07:08:11;5.15;;;2.80;;
11827;SDS011;5971;49.646;8.568;2023-05-10T07:11:14;6.40;;;3.28;;
11827;SDS011;5971;49.646;8.568;2023-05-10T07:14:15;5.25;;;2.67;;
11827;SDS011;5971;49.646;8.568;2023-05-10T07:17:16;3.72;;;2.20;;
11827;SDS011;5971;49.646;8.568;2023-05-10T07:20:18;5.72;;;3.35;;
11827;SDS011;5971;49.646;8.568;2023-05-10T07:23:19;4.38;;;2.50;;
11827;SDS011;5971;49.646;8.568;2023-05-10T07:26:21;5.18;;;2.83;;
11827;SDS011;5971;49.646;8.568;2023-05-10T07:29:22;5.82;;;3.05;;
11827;SDS011;5971;49.646;8.568;2023-05-10T07:32:23;4.95;;;2.83;;
11827;SDS011;5971;49.646;8.568;2023-05-10T07:35:25;4.63;;;2.95;;
11827;SDS011;5971;49.646;8.568;2023-05-10T07:38:26;5.32;;;3.38;;
11827;SDS011;5971;49.646;8.568;2023-05-10T07:41:27;4.72;;;2.67;;
11827;SDS011;5971;49.646;8.568;2023-05-10T07:44:29;5.18;;;3.25;;
11827;SDS011;5971;49.646;8.568;2023-05-10T07:47:30;6.32;;;3.63;;
11827;SDS011;5971;49.646;8.568;2023-05-10T07:50:32;6.18;;;3.00;;
11827;SDS011;5971;49.646;8.568;2023-05-10T07:53:33;5.97;;;2.67;;
11827;SDS011;5971;49.646;8.568;2023-05-10T07:56:34;4.25;;;2.58;;
11827;SDS011;5971;49.646;8.568;2023-05-10T07:59:36;3.92;;;2.80;;
11827;SDS011;5971;49.646;8.568;2023-05-10T08:02:37;4.03;;;2.50;;
11827;SDS011;5971;49.646;8.568;2023-05-10T08:05:38;4.25;;;2.33;;
11827;SDS011;5971;49.646;8.568;2023-05-10T08:08:40;3.30;;;2.08;;
11827;SDS011;5971;49.646;8.568;2023-05-10T08:11:41;2.88;;;1.80;;
11827;SDS011;5971;49.646;8.568;2023-05-10T08:14:43;3.05;;;1.80;;
11827;SDS011;5971;49.646;8.568;2023-05-10T08:17:44;3.15;;;1.48;;
11827;SDS011;5971;49.646;8.568;2023-05-10T08:20:45;3.67;;;1.35;;
11827;SDS011;5971;49.646;8.568;2023-05-10T08:23:47;3.28;;;1.23;;
11827;SDS011;5971;49.646;8.568;2023-05-10T08:26:48;2.40;;;1.50;;
11827;SDS011;5971;49.646;8.568;2023-05-10T08:29:49;2.90;;;1.83;;
11827;SDS011;5971;49.646;8.568;2023-05-10T08:32:51;2.65;;;1.25;;
11827;SDS011;5971;49.646;8.568;2023-05-10T08:35:52;2.28;;;1.40;;
11827;SDS011;5971;49.646;8.568;2023-05-10T08:38:53;2.38;;;1.27;;
11827;SDS011;5971;49.646;8.568;2023-05-10T08:41:55;1.67;;;1.05;;
11827;SDS011;5971;49.646;8.568;2023-05-10T08:45:00;1.83;;;1.00;;
11827;SDS011;5971;49.646;8.568;2023-05-10T08:48:01;1.90;;;1.38;;
11827;SDS011;5971;49.646;8.568;2023-05-10T08:51:03;2.10;;;1.00;;
11827;SDS011;5971;49.646;8.568;2023-05-10T08:54:04;1.42;;;1.02;;
11827;SDS011;5971;49.646;8.568;2023-05-10T08:57:06;1.60;;;1.10;;
11827;SDS011;5971;49.646;8.568;2023-05-10T09:00:08;3.67;;;1.50;;
11827;SDS011;5971;49.646;8.568;2023-05-10T09:03:10;1.60;;;1.23;;
11827;SDS011;5971;49.646;8.568;2023-05-10T09:06:11;1.30;;;0.93;;
11827;SDS011;5971;49.646;8.568;2023-05-10T09:09:15;2.22;;;1.23;;
11827;SDS011;5971;49.646;8.568;2023-05-10T09:12:17;2.78;;;1.20;;
11827;SDS011;5971;49.646;8.568;2023-05-10T09:15:18;1.48;;;1.02;;
11827;SDS011;5971;49.646;8.568;2023-05-10T09:18:20;1.80;;;1.10;;
11827;SDS011;5971;49.646;8.568;2023-05-10T09:21:22;2.65;;;1.27;;
11827;SDS011;5971;49.646;8.568;2023-05-10T09:24:26;2.47;;;1.48;;
11827;SDS011;5971;49.646;8.568;2023-05-10T09:27:28;2.58;;;1.60;;
11827;SDS011;5971;49.646;8.568;2023-05-10T09:30:29;1.88;;;1.20;;
11827;SDS011;5971;49.646;8.568;2023-05-10T09:33:41;2.53;;;1.38;;
11827;SDS011;5971;49.646;8.568;2023-05-10T09:36:54;2.17;;;1.23;;
11827;SDS011;5971;49.646;8.568;2023-05-10T09:39:55;4.68;;;1.85;;
11827;SDS011;5971;49.646;8.568;2023-05-10T09:43:06;2.50;;;1.70;;
11827;SDS011;5971;49.646;8.568;2023-05-10T09:46:08;3.17;;;1.52;;
11827;SDS011;5971;49.646;8.568;2023-05-10T09:49:11;2.90;;;1.73;;
11827;SDS011;5971;49.646;8.568;2023-05-10T09:52:15;4.32;;;1.88;;
11827;SDS011;5971;49.646;8.568;2023-05-10T09:55:17;2.42;;;1.75;;
11827;SDS011;5971;49.646;8.568;2023-05-10T09:58:19;2.75;;;1.67;;
11827;SDS011;5971;49.646;8.568;2023-05-10T10:01:20;3.75;;;1.77;;
11827;SDS011;5971;49.646;8.568;2023-05-10T10:04:21;2.55;;;1.80;;
11827;SDS011;5971;49.646;8.568;2023-05-10T10:07:23;2.22;;;1.55;;
11827;SDS011;5971;49.646;8.568;2023-05-10T10:10:26;2.60;;;1.98;;
11827;SDS011;5971;49.646;8.568;2023-05-10T10:13:28;2.60;;;1.52;;
11827;SDS011;5971;49.646;8.568;2023-05-10T10:16:30;2.60;;;1.52;;
11827;SDS011;5971;49.646;8.568;2023-05-10T10:19:33;2.60;;;1.52;;
11827;SDS011;5971;49.646;8.568;2023-05-10T10:22:34;2.42;;;1.50;;
11827;SDS011;5971;49.646;8.568;2023-05-10T10:25:35;2.08;;;1.33;;
11827;SDS011;5971;49.646;8.568;2023-05-10T10:32:03;2.30;;;1.33;;
11827;SDS011;5971;49.646;8.568;2023-05-10T10:35:07;2.40;;;1.40;;
11827;SDS011;5971;49.646;8.568;2023-05-10T10:38:09;2.70;;;1.42;;
11827;SDS011;5971;49.646;8.568;2023-05-10T10:41:11;1.92;;;1.23;;
11827;SDS011;5971;49.646;8.568;2023-05-10T10:47:29;2.63;;;1.33;;
11827;SDS011;5971;49.646;8.568;2023-05-10T10:50:43;1.88;;;1.33;;
11827;SDS011;5971;49.646;8.568;2023-05-10T10:53:44;2.05;;;1.33;;
11827;SDS011;5971;49.646;8.568;2023-05-10T10:57:09;2.00;;;1.08;;
11827;SDS011;5971;49.646;8.568;2023-05-10T11:03:23;1.35;;;0.82;;
11827;SDS011;5971;49.646;8.568;2023-05-10T11:06:30;1.10;;;0.93;;
11827;SDS011;5971;49.646;8.568;2023-05-10T11:09:37;1.33;;;0.95;;
11827;SDS011;5971;49.646;8.568;2023-05-10T11:12:50;3.45;;;0.93;;
11827;SDS011;5971;49.646;8.568;2023-05-10T11:15:51;1.48;;;0.93;;
11827;SDS011;5971;49.646;8.568;2023-05-10T11:18:54;1.75;;;0.93;;
11827;SDS011;5971;49.646;8.568;2023-05-10T11:25:06;1.23;;;0.93;;
11827;SDS011;5971;49.646;8.568;2023-05-10T11:28:07;1.73;;;1.13;;
11827;SDS011;5971;49.646;8.568;2023-05-10T11:31:09;1.55;;;1.02;;
11827;SDS011;5971;49.646;8.568;2023-05-10T11:34:10;1.75;;;0.98;;
11827;SDS011;5971;49.646;8.568;2023-05-10T11:37:12;1.60;;;1.05;;
11827;SDS011;5971;49.646;8.568;2023-05-10T11:40:13;1.83;;;0.93;;
11827;SDS011;5971;49.646;8.568;2023-05-10T11:43:16;4.57;;;1.35;;
11827;SDS011;5971;49.646;8.568;2023-05-10T11:46:18;2.30;;;1.05;;
11827;SDS011;5971;49.646;8.568;2023-05-10T11:49:21;1.80;;;1.00;;
11827;SDS011;5971;49.646;8.568;2023-05-10T11:52:24;1.23;;;0.90;;
11827;SDS011;5971;49.646;8.568;2023-05-10T11:55:25;1.80;;;1.00;;
11827;SDS011;5971;49.646;8.568;2023-05-10T11:58:26;3.15;;;1.02;;
11827;SDS011;5971;49.646;8.568;2023-05-10T12:01:28;1.45;;;0.80;;
11827;SDS011;5971;49.646;8.568;2023-05-10T12:04:29;3.75;;;1.83;;
11827;SDS011;5971;49.646;8.568;2023-05-10T12:07:31;1.92;;;0.90;;
11827;SDS011;5971;49.646;8.568;2023-05-10T12:10:34;2.22;;;1.13;;
11827;SDS011;5971;49.646;8.568;2023-05-10T12:13:39;1.33;;;0.82;;
11827;SDS011;5971;49.646;8.568;2023-05-10T12:16:43;1.40;;;1.02;;
11827;SDS011;5971;49.646;8.568;2023-05-10T12:19:44;2.35;;;0.90;;
11827;SDS011;5971;49.646;8.568;2023-05-10T12:22:46;2.53;;;1.00;;
11827;SDS011;5971;49.646;8.568;2023-05-10T12:25:48;3.30;;;1.40;;
11827;SDS011;5971;49.646;8.568;2023-05-10T12:28:49;2.53;;;1.20;;
11827;SDS011;5971;49.646;8.568;2023-05-10T12:34:55;1.77;;;1.02;;
11827;SDS011;5971;49.646;8.568;2023-05-10T12:37:58;1.70;;;1.17;;
11827;SDS011;5971;49.646;8.568;2023-05-10T12:41:01;1.67;;;1.02;;
11827;SDS011;5971;49.646;8.568;2023-05-10T12:44:03;2.15;;;1.20;;
11827;SDS011;5971;49.646;8.568;2023-05-10T12:47:04;1.90;;;1.00;;
11827;SDS011;5971;49.646;8.568;2023-05-10T12:50:07;1.35;;;1.02;;
11827;SDS011;5971;49.646;8.568;2023-05-10T12:53:08;1.75;;;0.93;;
11827;SDS011;5971;49.646;8.568;2023-05-10T12:56:09;2.70;;;1.08;;
11827;SDS011;5971;49.646;8.568;2023-05-10T12:59:11;2.13;;;0.95;;
11827;SDS011;5971;49.646;8.568;2023-05-10T13:02:12;1.60;;;1.02;;
11827;SDS011;5971;49.646;8.568;2023-05-10T13:05:14;2.00;;;1.35;;
11827;SDS011;5971;49.646;8.568;2023-05-10T13:08:15;2.65;;;1.58;;
11827;SDS011;5971;49.646;8.568;2023-05-10T13:11:16;1.75;;;1.20;;
11827;SDS011;5971;49.646;8.568;2023-05-10T13:14:18;2.85;;;1.20;;
11827;SDS011;5971;49.646;8.568;2023-05-10T13:17:21;2.92;;;1.20;;
11827;SDS011;5971;49.646;8.568;2023-05-10T13:20:22;2.20;;;1.35;;
11827;SDS011;5971;49.646;8.568;2023-05-10T13:23:24;3.40;;;1.48;;
11827;SDS011;5971;49.646;8.568;2023-05-10T13:26:25;3.00;;;1.48;;
11827;SDS011;5971;49.646;8.568;2023-05-10T13:29:27;3.13;;;1.33;;
11827;SDS011;5971;49.646;8.568;2023-05-10T13:32:28;1.98;;;1.00;;
11827;SDS011;5971;49.646;8.568;2023-05-10T13:35:30;2.80;;;1.35;;
11827;SDS011;5971;49.646;8.568;2023-05-10T13:38:31;3.25;;;1.45;;
11827;SDS011;5971;49.646;8.568;2023-05-10T13:41:33;2.28;;;1.20;;
11827;SDS011;5971;49.646;8.568;2023-05-10T13:44:34;4.20;;;1.17;;
11827;SDS011;5971;49.646;8.568;2023-05-10T13:47:35;2.10;;;1.25;;
11827;SDS011;5971;49.646;8.568;2023-05-10T13:50:37;1.63;;;1.13;;
11827;SDS011;5971;49.646;8.568;2023-05-10T13:53:39;1.63;;;1.00;;
11827;SDS011;5971;49.646;8.568;2023-05-10T13:56:41;1.23;;;1.00;;
11827;SDS011;5971;49.646;8.568;2023-05-10T13:59:43;2.20;;;1.25;;
11827;SDS011;5971;49.646;8.568;2023-05-10T14:02:44;2.88;;;1.45;;
11827;SDS011;5971;49.646;8.568;2023-05-10T14:05:46;1.95;;;1.02;;
11827;SDS011;5971;49.646;8.568;2023-05-10T14:08:48;2.72;;;1.10;;
11827;SDS011;5971;49.646;8.568;2023-05-10T14:11:49;2.35;;;1.23;;
11827;SDS011;5971;49.646;8.568;2023-05-10T14:14:51;1.60;;;1.02;;
11827;SDS011;5971;49.646;8.568;2023-05-10T14:17:53;1.35;;;0.95;;
11827;SDS011;5971;49.646;8.568;2023-05-10T14:20:54;3.08;;;1.10;;
11827;SDS011;5971;49.646;8.568;2023-05-10T14:23:56;2.45;;;1.15;;
11827;SDS011;5971;49.646;8.568;2023-05-10T14:26:58;2.25;;;1.13;;
11827;SDS011;5971;49.646;8.568;2023-05-10T14:29:59;1.73;;;0.82;;
11827;SDS011;5971;49.646;8.568;2023-05-10T14:33:01;2.58;;;1.02;;
11827;SDS011;5971;49.646;8.568;2023-05-10T14:36:03;1.85;;;1.00;;
11827;SDS011;5971;49.646;8.568;2023-05-10T14:39:05;1.48;;;0.95;;
11827;SDS011;5971;49.646;8.568;2023-05-10T14:42:07;1.58;;;0.93;;
11827;SDS011;5971;49.646;8.568;2023-05-10T14:45:09;1.17;;;0.93;;
11827;SDS011;5971;49.646;8.568;2023-05-10T14:48:12;2.10;;;1.10;;
11827;SDS011;5971;49.646;8.568;2023-05-10T14:51:16;1.58;;;0.85;;
11827;SDS011;5971;49.646;8.568;2023-05-10T14:54:17;1.95;;;1.17;;
11827;SDS011;5971;49.646;8.568;2023-05-10T14:57:19;2.17;;;0.90;;
11827;SDS011;5971;49.646;8.568;2023-05-10T15:00:20;1.67;;;0.73;;
11827;SDS011;5971;49.646;8.568;2023-05-10T15:03:22;1.80;;;0.90;;
11827;SDS011;5971;49.646;8.568;2023-05-10T15:06:30;1.50;;;1.00;;
11827;SDS011;5971;49.646;8.568;2023-05-10T15:09:31;4.97;;;1.00;;
11827;SDS011;5971;49.646;8.568;2023-05-10T15:12:32;2.38;;;1.00;;
11827;SDS011;5971;49.646;8.568;2023-05-10T15:15:34;1.70;;;1.05;;
11827;SDS011;5971;49.646;8.568;2023-05-10T15:18:35;1.15;;;0.90;;
11827;SDS011;5971;49.646;8.568;2023-05-10T15:21:36;1.92;;;0.95;;
11827;SDS011;5971;49.646;8.568;2023-05-10T15:24:39;1.90;;;1.08;;
11827;SDS011;5971;49.646;8.568;2023-05-10T15:27:41;1.90;;;1.00;;
11827;SDS011;5971;49.646;8.568;2023-05-10T15:30:44;2.25;;;1.05;;
11827;SDS011;5971;49.646;8.568;2023-05-10T15:33:45;1.38;;;0.82;;
11827;SDS011;5971;49.646;8.568;2023-05-10T15:36:47;1.65;;;1.00;;
11827;SDS011;5971;49.646;8.568;2023-05-10T15:39:48;2.72;;;0.82;;
11827;SDS011;5971;49.646;8.568;2023-05-10T15:42:49;2.72;;;0.93;;
11827;SDS011;5971;49.646;8.568;2023-05-10T15:45:51;1.27;;;0.90;;
11827;SDS011;5971;49.646;8.568;2023-05-10T15:48:52;1.63;;;0.90;;
11827;SDS011;5971;49.646;8.568;2023-05-10T15:51:55;1.40;;;0.80;;
11827;SDS011;5971;49.646;8.568;2023-05-10T15:54:56;1.17;;;0.90;;
11827;SDS011;5971;49.646;8.568;2023-05-10T15:57:58;2.38;;;0.95;;
11827;SDS011;5971;49.646;8.568;2023-05-10T16:00:59;1.20;;;1.00;;
11827;SDS011;5971;49.646;8.568;2023-05-10T16:04:00;1.17;;;0.93;;
11827;SDS011;5971;49.646;8.568;2023-05-10T16:07:02;3.03;;;0.93;;
11827;SDS011;5971;49.646;8.568;2023-05-10T16:10:03;2.03;;;0.68;;
11827;SDS011;5971;49.646;8.568;2023-05-10T16:13:06;1.55;;;0.90;;
11827;SDS011;5971;49.646;8.568;2023-05-10T16:16:08;1.38;;;0.88;;
11827;SDS011;5971;49.646;8.568;2023-05-10T16:19:09;1.23;;;0.88;;
11827;SDS011;5971;49.646;8.568;2023-05-10T16:22:11;0.85;;;0.68;;
11827;SDS011;5971;49.646;8.568;2023-05-10T16:25:12;1.30;;;0.82;;
11827;SDS011;5971;49.646;8.568;2023-05-10T16:28:14;2.28;;;0.95;;
11827;SDS011;5971;49.646;8.568;2023-05-10T16:31:15;1.25;;;0.93;;
11827;SDS011;5971;49.646;8.568;2023-05-10T16:34:18;1.42;;;0.90;;
11827;SDS011;5971;49.646;8.568;2023-05-10T16:37:24;1.88;;;1.00;;
11827;SDS011;5971;49.646;8.568;2023-05-10T16:40:25;1.33;;;1.13;;
11827;SDS011;5971;49.646;8.568;2023-05-10T16:43:26;1.60;;;0.93;;
11827;SDS011;5971;49.646;8.568;2023-05-10T16:46:28;1.40;;;0.90;;
11827;SDS011;5971;49.646;8.568;2023-05-10T16:49:29;1.27;;;0.73;;
11827;SDS011;5971;49.646;8.568;2023-05-10T16:52:31;2.20;;;0.90;;
11827;SDS011;5971;49.646;8.568;2023-05-10T16:55:32;1.23;;;0.82;;
11827;SDS011;5971;49.646;8.568;2023-05-10T16:58:34;1.60;;;1.10;;
11827;SDS011;5971;49.646;8.568;2023-05-10T17:01:35;2.22;;;0.82;;
11827;SDS011;5971;49.646;8.568;2023-05-10T17:04:36;1.42;;;0.82;;
11827;SDS011;5971;49.646;8.568;2023-05-10T17:07:38;1.40;;;0.85;;
11827;SDS011;5971;49.646;8.568;2023-05-10T17:10:39;1.85;;;1.05;;
11827;SDS011;5971;49.646;8.568;2023-05-10T17:13:41;1.60;;;0.98;;
11827;SDS011;5971;49.646;8.568;2023-05-10T17:16:43;3.35;;;1.05;;
11827;SDS011;5971;49.646;8.568;2023-05-10T17:19:44;1.92;;;1.23;;
11827;SDS011;5971;49.646;8.568;2023-05-10T17:22:45;1.33;;;0.82;;
11827;SDS011;5971;49.646;8.568;2023-05-10T17:25:47;1.42;;;0.95;;
11827;SDS011;5971;49.646;8.568;2023-05-10T17:28:48;2.00;;;1.38;;
11827;SDS011;5971;49.646;8.568;2023-05-10T17:31:49;1.52;;;1.00;;
11827;SDS011;5971;49.646;8.568;2023-05-10T17:34:51;1.55;;;1.20;;
11827;SDS011;5971;49.646;8.568;2023-05-10T17:37:52;1.33;;;1.20;;
11827;SDS011;5971;49.646;8.568;2023-05-10T17:40:54;3.67;;;0.93;;
11827;SDS011;5971;49.646;8.568;2023-05-10T17:43:55;1.08;;;0.80;;
11827;SDS011;5971;49.646;8.568;2023-05-10T17:46:56;1.38;;;0.85;;
11827;SDS011;5971;49.646;8.568;2023-05-10T17:49:58;1.65;;;1.52;;
11827;SDS011;5971;49.646;8.568;2023-05-10T17:52:59;1.90;;;0.90;;
11827;SDS011;5971;49.646;8.568;2023-05-10T17:56:01;1.70;;;0.93;;
11827;SDS011;5971;49.646;8.568;2023-05-10T17:59:02;2.33;;;1.70;;
11827;SDS011;5971;49.646;8.568;2023-05-10T18:02:04;2.30;;;1.05;;
11827;SDS011;5971;49.646;8.568;2023-05-10T18:05:05;1.42;;;1.02;;
11827;SDS011;5971;49.646;8.568;2023-05-10T18:08:07;2.90;;;1.00;;
11827;SDS011;5971;49.646;8.568;2023-05-10T18:11:08;1.80;;;1.08;;
11827;SDS011;5971;49.646;8.568;2023-05-10T18:14:10;4.32;;;1.10;;
11827;SDS011;5971;49.646;8.568;2023-05-10T18:17:11;1.15;;;0.82;;
11827;SDS011;5971;49.646;8.568;2023-05-10T18:20:13;2.05;;;1.10;;
11827;SDS011;5971;49.646;8.568;2023-05-10T18:23:14;2.47;;;1.10;;
11827;SDS011;5971;49.646;8.568;2023-05-10T18:26:15;1.90;;;1.30;;
11827;SDS011;5971;49.646;8.568;2023-05-10T18:29:18;1.40;;;0.98;;
11827;SDS011;5971;49.646;8.568;2023-05-10T18:32:19;1.73;;;1.25;;
11827;SDS011;5971;49.646;8.568;2023-05-10T18:35:20;2.33;;;1.10;;
11827;SDS011;5971;49.646;8.568;2023-05-10T18:38:22;2.65;;;1.25;;
11827;SDS011;5971;49.646;8.568;2023-05-10T18:41:24;2.45;;;1.33;;
11827;SDS011;5971;49.646;8.568;2023-05-10T18:44:28;3.47;;;1.40;;
11827;SDS011;5971;49.646;8.568;2023-05-10T18:47:29;2.88;;;1.30;;
11827;SDS011;5971;49.646;8.568;2023-05-10T18:50:31;1.92;;;1.45;;
11827;SDS011;5971;49.646;8.568;2023-05-10T18:53:32;2.40;;;1.40;;
11827;SDS011;5971;49.646;8.568;2023-05-10T18:56:34;2.50;;;1.45;;
11827;SDS011;5971;49.646;8.568;2023-05-10T18:59:35;2.95;;;1.42;;